KRCR/RCR METAR and TAF weather

Enter ICAO airport designator
Station Type Date Time Source
KRCR METAR 2020/02/25 11:55 UTC NOAA

KRCR 251155Z AUTO 04010KT 4SM BR OVC005 03/02 A2980 RMK AO2


Station Type Date Time Source
KRCR Decoded METAR 2020/02/25 11:55 UTC NOAA

Station name not available
Feb 25, 2020 - 06:55 AM EST / 2020.02.25 1155 UTC
Wind: from the NE (040 degrees) at 12 MPH (10 KT):0
Visibility: 4 mile(s):0
Sky conditions: overcast
Weather: mist
Temperature: 37 F (3 C)
Dew Point: 35 F (2 C)
Relative Humidity: 93%
Pressure (altimeter): 29.8 in. Hg (1009 hPa)
ob: KRCR 251155Z AUTO 04010KT 4SM BR OVC005 03/02 A2980 RMK AO2
cycle: 12

Station Type Date Time Source
KRCR TAF UTC NOAA

Error!

Example: see airport list